Arcata, California
Current Conditions -  °F | °C
As of 10:53 PM on Saturday 22 Nov 2014 (Local Time) from KACV Reporting Station
Clear Clear  
Wind Chill: 44°   Ceiling: Unl
Heat Index: 47°   Visibility: 10mi
Dew Point: 44°   Wind: 6mph
Humidity: 90%   Direction: 90°E
Pressure: 30.32"   Gusts: NA
Location:  40.87°N, 124.08°W
Report Text: KACV 230653Z AUTO 09005KT 10SM CLR 08/07 A3032 RMK AO2 SLP272 T00830067
Loading
Personal Weather Stations






























Interactive Weather Map New forecast layout! Learn more

10-Day Weather Forecast

Advertisements
Track Severe Weather on mobile